Time;durP1;ratioP1;P1;durP2;ratioP2;P2;SDS_P1;SDS_P2;PMS_P1;PMS_P2;Temp;Humidity;BMP_temperature;BMP_pressure;BME280_temperature;BME280_humidity;BME280_pressure;Samples;Min_cycle;Max_cycle;Signal;HPM_P1;HPM_P2
2023/07/11 00:00:50;;;;;;;56.90;2.37;;;;;;;;;;5033496;28;20455;-69
2023/07/11 00:03:17;;;;;;;56.43;1.90;;;;;;;;;;5033435;28;20544;-69
2023/07/11 00:05:44;;;;;;;56.90;2.40;;;;;;;;;;5032660;28;20447;-69
2023/07/11 00:08:11;;;;;;;57.40;2.73;;;;;;;;;;5033321;28;20493;-69
2023/07/11 00:10:38;;;;;;;57.07;2.60;;;;;;;;;;5033073;28;20488;-69
2023/07/11 00:13:06;;;;;;;57.20;2.63;;;;;;;;;;5032967;28;20453;-69
2023/07/11 00:15:33;;;;;;;57.40;3.03;;;;;;;;;;5032846;28;20456;-69
2023/07/11 00:18:00;;;;;;;57.00;2.30;;;;;;;;;;5032970;28;21039;-69
2023/07/11 00:20:27;;;;;;;56.67;2.00;;;;;;;;;;5032987;28;20445;-69
2023/07/11 00:22:55;;;;;;;56.97;2.30;;;;;;;;;;5032934;28;20456;-69
2023/07/11 00:25:22;;;;;;;57.10;2.83;;;;;;;;;;5032524;28;20449;-69
2023/07/11 00:27:49;;;;;;;58.30;2.73;;;;;;;;;;5032607;28;20473;-69
2023/07/11 00:30:17;;;;;;;56.97;2.40;;;;;;;;;;5032837;28;20488;-69
2023/07/11 00:32:44;;;;;;;57.00;2.30;;;;;;;;;;5032815;28;20445;-69
2023/07/11 00:35:11;;;;;;;57.60;3.10;;;;;;;;;;5032441;28;20460;-69
2023/07/11 00:37:38;;;;;;;57.37;3.40;;;;;;;;;;5032492;28;20469;-69
2023/07/11 00:40:06;;;;;;;56.73;2.10;;;;;;;;;;5032455;28;20449;-69
2023/07/11 00:42:33;;;;;;;56.80;1.90;;;;;;;;;;5032750;28;20445;-69
2023/07/11 00:45:03;;;;;;;56.93;1.93;;;;;;;;;;5032488;28;20449;-69
2023/07/11 00:47:32;;;;;;;57.27;2.53;;;;;;;;;;5032556;28;20965;-70
2023/07/11 00:50:01;;;;;;;56.77;2.00;;;;;;;;;;5032263;28;20481;-69
2023/07/11 00:52:29;;;;;;;56.70;2.10;;;;;;;;;;5032394;28;20446;-69
2023/07/11 00:54:57;;;;;;;57.37;3.13;;;;;;;;;;5032163;28;20444;-69
2023/07/11 00:57:25;;;;;;;57.20;2.27;;;;;;;;;;5032378;28;20500;-69
2023/07/11 00:59:53;;;;;;;56.90;2.00;;;;;;;;;;5032279;28;20822;-69
2023/07/11 01:02:21;;;;;;;59.63;2.53;;;;;;;;;;5032226;28;20798;-69
2023/07/11 01:04:50;;;;;;;56.87;2.30;;;;;;;;;;5032175;28;20472;-69
2023/07/11 01:07:20;;;;;;;57.47;2.77;;;;;;;;;;5031663;28;20472;-69
2023/07/11 01:09:47;;;;;;;57.00;2.30;;;;;;;;;;5031826;28;20493;-69
2023/07/11 01:12:15;;;;;;;56.67;2.00;;;;;;;;;;5032042;28;20957;-69
2023/07/11 01:14:42;;;;;;;57.10;3.20;;;;;;;;;;5032018;28;20540;-69
2023/07/11 01:17:23;;;;;;;57.77;3.60;;;;;;;;;;5031645;28;20465;-69
2023/07/11 01:19:51;;;;;;;57.10;2.50;;;;;;;;;;5030918;28;20829;-69
2023/07/11 01:22:20;;;;;;;56.87;1.90;;;;;;;;;;5032127;28;20453;-69
2023/07/11 01:24:47;;;;;;;56.80;2.20;;;;;;;;;;5031810;28;20449;-69
2023/07/11 01:27:15;;;;;;;56.90;2.50;;;;;;;;;;5031417;28;20469;-69
2023/07/11 01:29:42;;;;;;;57.10;2.43;;;;;;;;;;5031773;28;20845;-69
2023/07/11 01:32:10;;;;;;;57.07;2.40;;;;;;;;;;5031504;28;20453;-69
2023/07/11 01:34:37;;;;;;;58.07;3.53;;;;;;;;;;5031918;28;20441;-69
2023/07/11 01:37:04;;;;;;;56.80;2.53;;;;;;;;;;5031139;28;20473;-69
2023/07/11 01:39:33;;;;;;;56.63;2.73;;;;;;;;;;5031424;28;20456;-69
2023/07/11 01:42:00;;;;;;;57.17;2.80;;;;;;;;;;5031568;28;20450;-69
2023/07/11 01:44:28;;;;;;;56.90;2.23;;;;;;;;;;5031591;28;20888;-69
2023/07/11 01:46:55;;;;;;;57.97;3.40;;;;;;;;;;5030955;28;20473;-69
2023/07/11 01:49:22;;;;;;;57.20;2.83;;;;;;;;;;5031408;28;20456;-69
2023/07/11 01:51:49;;;;;;;56.90;2.17;;;;;;;;;;5029858;28;20449;-69
2023/07/11 01:54:16;;;;;;;57.17;2.60;;;;;;;;;;5031184;28;20453;-69
2023/07/11 01:56:45;;;;;;;56.70;2.23;;;;;;;;;;5030714;28;20484;-69
2023/07/11 01:59:12;;;;;;;63.10;2.40;;;;;;;;;;5031007;28;21166;-68
2023/07/11 02:01:39;;;;;;;60.80;3.03;;;;;;;;;;5031510;28;20467;-68
2023/07/11 02:04:06;;;;;;;58.07;2.93;;;;;;;;;;5031224;28;20840;-68
2023/07/11 02:06:34;;;;;;;57.00;2.40;;;;;;;;;;5030785;28;20545;-68
2023/07/11 02:09:02;;;;;;;56.67;2.40;;;;;;;;;;5030996;28;20461;-68
2023/07/11 02:11:29;;;;;;;57.67;2.60;;;;;;;;;;5031241;28;20481;-68
2023/07/11 02:13:57;;;;;;;56.87;2.63;;;;;;;;;;5031252;28;20449;-68
2023/07/11 02:16:24;;;;;;;57.27;2.90;;;;;;;;;;5030740;28;20453;-68
2023/07/11 02:18:51;;;;;;;57.03;2.33;;;;;;;;;;5031078;28;20449;-68
2023/07/11 02:21:18;;;;;;;57.10;2.50;;;;;;;;;;5031440;28;20452;-68
2023/07/11 02:23:46;;;;;;;57.50;2.97;;;;;;;;;;5031286;28;20449;-68
2023/07/11 02:26:13;;;;;;;57.17;2.73;;;;;;;;;;5030876;28;20453;-68
2023/07/11 02:28:40;;;;;;;56.73;2.37;;;;;;;;;;5031082;28;20503;-68
2023/07/11 02:31:08;;;;;;;57.10;2.27;;;;;;;;;;5031125;28;20492;-68
2023/07/11 02:33:35;;;;;;;57.03;2.10;;;;;;;;;;5031133;28;20456;-68
2023/07/11 02:36:03;;;;;;;57.10;2.77;;;;;;;;;;5030487;28;20453;-68
2023/07/11 02:38:30;;;;;;;57.60;2.57;;;;;;;;;;5030888;28;20480;-68
2023/07/11 02:40:57;;;;;;;57.07;2.30;;;;;;;;;;5030886;28;20452;-68
2023/07/11 02:43:24;;;;;;;57.20;2.40;;;;;;;;;;5030941;28;20852;-68
2023/07/11 02:45:51;;;;;;;57.60;3.70;;;;;;;;;;5030571;28;20468;-68
2023/07/11 02:48:19;;;;;;;56.73;2.30;;;;;;;;;;5030631;28;20471;-68
2023/07/11 02:50:46;;;;;;;59.00;4.00;;;;;;;;;;5030861;28;20481;-68
2023/07/11 02:53:13;;;;;;;58.43;4.97;;;;;;;;;;5030886;28;20452;-68
2023/07/11 02:55:41;;;;;;;56.47;2.20;;;;;;;;;;5030472;28;20452;-69
2023/07/11 02:58:08;;;;;;;57.10;2.27;;;;;;;;;;5030760;28;20472;-68
2023/07/11 03:00:35;;;;;;;57.07;2.40;;;;;;;;;;5030799;28;20445;-68
2023/07/11 03:03:03;;;;;;;57.10;2.50;;;;;;;;;;5030762;28;20449;-68
2023/07/11 03:05:31;;;;;;;56.53;2.03;;;;;;;;;;5030530;28;20483;-68
2023/07/11 03:07:58;;;;;;;57.50;2.50;;;;;;;;;;5030571;28;20481;-68
2023/07/11 03:10:25;;;;;;;56.73;2.00;;;;;;;;;;5032693;28;20488;-68
2023/07/11 03:12:52;;;;;;;57.33;2.40;;;;;;;;;;5034243;28;20455;-68
2023/07/11 03:15:19;;;;;;;57.07;2.00;;;;;;;;;;5033786;28;20460;-68
2023/07/11 03:17:46;;;;;;;56.47;2.60;;;;;;;;;;5034007;28;20515;-68
2023/07/11 03:20:13;;;;;;;56.80;2.40;;;;;;;;;;5034053;28;20445;-68
2023/07/11 03:22:42;;;;;;;57.17;2.60;;;;;;;;;;5034002;28;20449;-68
2023/07/11 03:25:09;;;;;;;57.10;2.40;;;;;;;;;;5033815;28;20454;-68
2023/07/11 03:27:36;;;;;;;57.00;2.53;;;;;;;;;;5033778;28;20480;-68
2023/07/11 03:30:03;;;;;;;57.37;3.30;;;;;;;;;;5033720;28;20476;-68
2023/07/11 03:32:31;;;;;;;56.67;2.07;;;;;;;;;;5034012;28;20480;-68
2023/07/11 03:34:58;;;;;;;57.80;3.13;;;;;;;;;;5034140;28;20445;-68
2023/07/11 03:37:25;;;;;;;56.73;2.97;;;;;;;;;;5033726;28;20472;-68
2023/07/11 03:39:53;;;;;;;57.60;2.60;;;;;;;;;;5033817;28;20446;-68
2023/07/11 03:42:20;;;;;;;58.40;3.37;;;;;;;;;;5033656;28;20954;-68
2023/07/11 03:44:47;;;;;;;57.30;2.40;;;;;;;;;;5033492;28;20949;-68
2023/07/11 03:47:14;;;;;;;57.50;3.60;;;;;;;;;;5033426;28;20492;-68
2023/07/11 03:49:41;;;;;;;57.37;2.40;;;;;;;;;;5032982;28;20454;-68
2023/07/11 03:52:08;;;;;;;56.77;2.50;;;;;;;;;;5033469;28;20488;-68
2023/07/11 03:54:35;;;;;;;57.30;2.50;;;;;;;;;;5033302;28;20457;-68
2023/07/11 03:57:04;;;;;;;57.77;2.30;;;;;;;;;;5032902;28;20469;-68
2023/07/11 03:59:31;;;;;;;57.60;2.90;;;;;;;;;;5033321;28;20454;-68
2023/07/11 04:01:59;;;;;;;57.07;2.20;;;;;;;;;;5033243;28;20441;-68
2023/07/11 04:04:26;;;;;;;56.47;2.13;;;;;;;;;;5033227;28;20962;-68
2023/07/11 04:06:53;;;;;;;56.90;2.50;;;;;;;;;;5032881;28;20480;-68
2023/07/11 04:09:20;;;;;;;56.80;2.37;;;;;;;;;;5032911;28;20463;-68
2023/07/11 04:11:47;;;;;;;57.20;2.80;;;;;;;;;;5032871;28;20480;-68
2023/07/11 04:14:15;;;;;;;57.07;2.30;;;;;;;;;;5033211;28;20457;-68
2023/07/11 04:16:42;;;;;;;57.23;2.70;;;;;;;;;;5032698;28;20477;-68
2023/07/11 04:19:09;;;;;;;56.80;2.70;;;;;;;;;;5033065;28;20817;-68
2023/07/11 04:21:37;;;;;;;57.03;2.90;;;;;;;;;;5032500;28;20829;-68
2023/07/11 04:24:04;;;;;;;57.60;2.80;;;;;;;;;;5032956;28;20449;-68
2023/07/11 04:26:31;;;;;;;56.87;2.30;;;;;;;;;;5032376;28;20453;-68
2023/07/11 04:28:58;;;;;;;56.73;2.40;;;;;;;;;;5032956;28;20456;-68
2023/07/11 04:31:27;;;;;;;57.10;2.40;;;;;;;;;;5032547;28;21005;-68
2023/07/11 04:33:54;;;;;;;57.50;2.93;;;;;;;;;;5032721;28;20446;-68
2023/07/11 04:36:21;;;;;;;57.53;2.70;;;;;;;;;;5032199;28;20457;-68
2023/07/11 04:38:48;;;;;;;57.77;2.63;;;;;;;;;;5032543;28;20916;-68
2023/07/11 04:41:15;;;;;;;56.77;2.30;;;;;;;;;;5032690;28;20441;-68
2023/07/11 04:43:42;;;;;;;57.83;2.70;;;;;;;;;;5032723;28;20661;-68
2023/07/11 04:46:10;;;;;;;56.90;2.23;;;;;;;;;;5032243;28;20452;-68
2023/07/11 04:48:38;;;;;;;57.10;2.50;;;;;;;;;;5032596;28;20465;-68
2023/07/11 04:51:06;;;;;;;56.67;2.40;;;;;;;;;;5032285;28;20488;-68
2023/07/11 04:53:34;;;;;;;57.03;2.50;;;;;;;;;;5032764;28;20449;-70
2023/07/11 04:56:03;;;;;;;56.67;2.30;;;;;;;;;;5032020;28;20450;-68
2023/07/11 05:01:33;;;;;;;57.27;2.80;;;;;;;;;;5030929;28;20408;-69
2023/07/11 05:04:02;;;;;;;57.67;2.73;;;;;;;;;;5032178;28;20457;-68
2023/07/11 05:06:29;;;;;;;56.93;2.30;;;;;;;;;;5031897;28;20449;-68
2023/07/11 05:08:56;;;;;;;56.60;2.23;;;;;;;;;;5032099;28;20468;-69
2023/07/11 05:11:23;;;;;;;56.37;2.10;;;;;;;;;;5031951;28;20494;-69
2023/07/11 05:13:51;;;;;;;56.80;2.23;;;;;;;;;;5031930;28;20456;-69
2023/07/11 05:16:19;;;;;;;57.10;2.60;;;;;;;;;;5031898;28;20499;-70
2023/07/11 05:18:47;;;;;;;56.70;2.40;;;;;;;;;;5032268;28;20912;-69
2023/07/11 05:21:16;;;;;;;56.17;2.30;;;;;;;;;;5032158;28;20449;-70
2023/07/11 05:23:44;;;;;;;56.40;2.17;;;;;;;;;;5031742;28;21123;-69
2023/07/11 05:26:11;;;;;;;60.17;2.40;;;;;;;;;;5031379;28;20457;-70
2023/07/11 05:28:38;;;;;;;57.67;2.80;;;;;;;;;;5031859;28;20998;-69
2023/07/11 05:31:06;;;;;;;57.47;2.43;;;;;;;;;;5031476;28;21039;-70
2023/07/11 05:33:33;;;;;;;57.30;2.97;;;;;;;;;;5030981;28;20449;-69
2023/07/11 05:36:07;;;;;;;57.87;2.90;;;;;;;;;;5031536;28;20813;-69
2023/07/11 05:38:36;;;;;;;56.70;2.40;;;;;;;;;;5031500;28;20465;-70
2023/07/11 05:41:03;;;;;;;58.97;3.23;;;;;;;;;;5031803;28;20454;-69
2023/07/11 05:43:30;;;;;;;56.90;2.30;;;;;;;;;;5031485;28;20449;-70
2023/07/11 05:45:57;;;;;;;56.77;2.30;;;;;;;;;;5031321;28;20922;-70
2023/07/11 05:48:24;;;;;;;56.57;2.10;;;;;;;;;;5031339;28;20476;-70
2023/07/11 05:51:01;;;;;;;56.90;2.10;;;;;;;;;;5031404;28;20481;-69
2023/07/11 05:53:29;;;;;;;56.80;2.07;;;;;;;;;;5031718;28;20453;-69
2023/07/11 05:55:58;;;;;;;56.30;2.47;;;;;;;;;;5031326;28;20449;-70
2023/07/11 05:58:25;;;;;;;56.07;2.03;;;;;;;;;;5031338;28;20853;-70
2023/07/11 06:00:53;;;;;;;57.40;2.57;;;;;;;;;;5031392;28;20445;-70
2023/07/11 06:03:20;;;;;;;57.27;2.27;;;;;;;;;;5031183;28;20453;-70
2023/07/11 06:05:48;;;;;;;57.70;2.50;;;;;;;;;;5031112;28;20809;-70
2023/07/11 06:08:15;;;;;;;56.63;2.40;;;;;;;;;;5031569;28;20551;-70
2023/07/11 06:10:42;;;;;;;56.67;2.20;;;;;;;;;;5031540;28;20445;-70
2023/07/11 06:13:11;;;;;;;56.87;2.20;;;;;;;;;;5031135;28;20943;-70
2023/07/11 06:15:39;;;;;;;56.67;2.10;;;;;;;;;;5030764;28;20464;-70
2023/07/11 06:18:06;;;;;;;57.93;3.07;;;;;;;;;;5030911;28;20815;-70
2023/07/11 06:20:33;;;;;;;57.50;2.70;;;;;;;;;;5031289;28;20452;-68
2023/07/11 06:23:00;;;;;;;57.20;2.00;;;;;;;;;;5031156;28;20453;-70
2023/07/11 06:25:27;;;;;;;58.50;2.80;;;;;;;;;;5030838;28;20449;-68
2023/07/11 06:27:54;;;;;;;57.27;2.50;;;;;;;;;;5030818;28;20469;-68
2023/07/11 06:30:23;;;;;;;57.30;2.60;;;;;;;;;;5030828;28;20473;-68
2023/07/11 06:32:50;;;;;;;56.10;2.10;;;;;;;;;;5030688;28;20905;-68
2023/07/11 06:35:17;;;;;;;57.13;2.50;;;;;;;;;;5030559;28;20950;-68
2023/07/11 06:37:44;;;;;;;57.00;2.47;;;;;;;;;;5031057;28;20468;-69
2023/07/11 06:40:12;;;;;;;57.60;1.90;;;;;;;;;;5030783;28;20451;-68
2023/07/11 06:42:39;;;;;;;56.47;2.20;;;;;;;;;;5030598;28;20449;-68
2023/07/11 06:45:07;;;;;;;59.90;3.67;;;;;;;;;;5034194;28;20448;-68
2023/07/11 06:47:35;;;;;;;56.90;2.17;;;;;;;;;;5034471;28;20812;-68
2023/07/11 06:50:02;;;;;;;56.67;2.07;;;;;;;;;;5034966;28;20456;-68
2023/07/11 06:52:29;;;;;;;56.60;2.10;;;;;;;;;;5034801;28;20492;-68
2023/07/11 06:54:56;;;;;;;56.30;2.50;;;;;;;;;;5034527;28;20502;-68
2023/07/11 06:57:24;;;;;;;57.03;2.70;;;;;;;;;;5034293;28;20474;-68
2023/07/11 06:59:51;;;;;;;56.90;2.10;;;;;;;;;;5034624;28;20449;-68
2023/07/11 07:02:18;;;;;;;57.10;2.83;;;;;;;;;;5034855;28;20937;-68
2023/07/11 07:04:46;;;;;;;57.50;2.70;;;;;;;;;;5034435;28;20837;-68
2023/07/11 07:07:13;;;;;;;56.97;2.40;;;;;;;;;;5034462;28;20472;-68
2023/07/11 07:09:40;;;;;;;56.73;2.23;;;;;;;;;;5031394;28;20461;-68
2023/07/11 07:12:08;;;;;;;57.20;2.50;;;;;;;;;;5033749;28;20484;-68
2023/07/11 07:14:35;;;;;;;56.97;2.77;;;;;;;;;;5033954;28;20942;-68
2023/07/11 07:17:02;;;;;;;56.27;2.20;;;;;;;;;;5033826;28;21008;-68
2023/07/11 07:19:29;;;;;;;56.40;2.40;;;;;;;;;;5034055;28;21025;-68
2023/07/11 07:21:57;;;;;;;57.10;2.53;;;;;;;;;;5033955;28;20441;-68
2023/07/11 07:27:49;;;;;;;56.80;2.53;;;;;;;;;;5029189;28;20470;-69
2023/07/11 07:30:16;;;;;;;57.27;2.50;;;;;;;;;;5031295;28;20452;-68
2023/07/11 07:32:43;;;;;;;56.43;2.10;;;;;;;;;;5033653;28;20481;-69
2023/07/11 07:35:10;;;;;;;57.10;2.70;;;;;;;;;;5033476;28;20461;-69
2023/07/11 07:43:53;;;;;;;57.23;3.00;;;;;;;;;;4989791;28;20501;-73
2023/07/11 07:46:20;;;;;;;58.23;2.63;;;;;;;;;;4996786;28;20490;-73
2023/07/11 07:48:47;;;;;;;56.67;2.50;;;;;;;;;;4994635;28;20972;-73
2023/07/11 07:51:16;;;;;;;57.13;2.13;;;;;;;;;;4994479;28;20466;-73
2023/07/11 07:53:43;;;;;;;56.60;1.90;;;;;;;;;;4994987;28;20455;-73
2023/07/11 07:56:11;;;;;;;57.27;2.20;;;;;;;;;;4993701;28;20454;-73
2023/07/11 07:58:39;;;;;;;56.47;2.43;;;;;;;;;;4994097;28;20455;-75
2023/07/11 08:01:07;;;;;;;56.00;2.43;;;;;;;;;;4994037;28;20481;-74
2023/07/11 08:03:35;;;;;;;56.87;3.00;;;;;;;;;;4994421;28;20454;-73
2023/07/11 08:06:03;;;;;;;56.47;1.90;;;;;;;;;;4993817;28;20455;-73
2023/07/11 08:08:30;;;;;;;56.60;1.90;;;;;;;;;;4993898;28;20544;-74
2023/07/11 08:11:01;;;;;;;56.80;2.50;;;;;;;;;;4993996;28;20477;-73
2023/07/11 08:13:28;;;;;;;57.37;3.03;;;;;;;;;;4994424;28;20482;-72
2023/07/11 08:15:55;;;;;;;57.53;2.30;;;;;;;;;;4993610;28;20459;-72
2023/07/11 08:18:24;;;;;;;58.07;3.10;;;;;;;;;;4993856;28;20822;-73
2023/07/11 08:20:51;;;;;;;56.60;2.20;;;;;;;;;;4993523;28;20475;-71
2023/07/11 08:23:18;;;;;;;56.50;2.27;;;;;;;;;;4993968;28;20786;-72
2023/07/11 08:25:45;;;;;;;57.17;2.90;;;;;;;;;;4994865;28;20458;-72
2023/07/11 08:28:12;;;;;;;56.80;3.50;;;;;;;;;;4994795;28;20454;-73
2023/07/11 08:30:40;;;;;;;56.40;1.90;;;;;;;;;;4994031;28;20462;-72
2023/07/11 08:33:07;;;;;;;57.60;2.00;;;;;;;;;;4993576;28;20557;-73
2023/07/11 08:35:35;;;;;;;57.80;2.40;;;;;;;;;;4993952;28;20446;-74
2023/07/11 08:38:03;;;;;;;56.80;2.23;;;;;;;;;;4993784;28;20977;-74
2023/07/11 08:40:32;;;;;;;56.17;1.93;;;;;;;;;;4992874;28;20462;-73
2023/07/11 08:43:03;;;;;;;56.67;2.17;;;;;;;;;;4993752;28;20458;-74
2023/07/11 08:45:32;;;;;;;56.90;1.90;;;;;;;;;;4994071;28;20503;-74
2023/07/11 08:48:02;;;;;;;56.37;2.10;;;;;;;;;;4993334;28;20451;-72
2023/07/11 08:50:30;;;;;;;56.47;2.37;;;;;;;;;;4993412;28;20447;-73
2023/07/11 08:53:04;;;;;;;56.77;2.50;;;;;;;;;;4994232;28;20485;-72
2023/07/11 08:55:32;;;;;;;56.90;3.23;;;;;;;;;;4994578;28;20462;-73
2023/07/11 08:58:04;;;;;;;57.00;2.37;;;;;;;;;;4993902;28;20819;-72
2023/07/11 09:00:32;;;;;;;56.50;2.27;;;;;;;;;;4993129;28;20447;-73
2023/07/11 09:03:02;;;;;;;57.33;2.07;;;;;;;;;;4994993;28;20443;-72
2023/07/11 09:05:34;;;;;;;56.50;2.37;;;;;;;;;;4993688;28;21261;-72
2023/07/11 09:08:04;;;;;;;56.20;1.93;;;;;;;;;;4998365;28;20478;-71
2023/07/11 09:10:39;;;;;;;56.63;2.40;;;;;;;;;;4995475;28;20454;-72
2023/07/11 09:13:15;;;;;;;56.80;2.30;;;;;;;;;;4995823;28;20849;-74
2023/07/11 09:15:45;;;;;;;56.97;2.73;;;;;;;;;;4992906;28;20831;-74
2023/07/11 09:18:17;;;;;;;56.80;2.30;;;;;;;;;;4995540;28;20462;-72
2023/07/11 09:20:46;;;;;;;56.90;2.00;;;;;;;;;;4994499;28;21181;-72
2023/07/11 09:23:21;;;;;;;56.73;2.63;;;;;;;;;;4992956;28;20497;-72
2023/07/11 09:25:48;;;;;;;56.17;2.00;;;;;;;;;;4993058;28;20446;-73
2023/07/11 09:28:20;;;;;;;56.07;1.80;;;;;;;;;;4992392;28;20958;-72
2023/07/11 09:30:49;;;;;;;56.37;2.30;;;;;;;;;;4992635;28;20478;-71
2023/07/11 09:33:18;;;;;;;56.10;2.40;;;;;;;;;;4992292;28;20491;-73
2023/07/11 09:35:45;;;;;;;58.40;3.33;;;;;;;;;;4992233;28;20455;-73
2023/07/11 09:38:15;;;;;;;56.70;2.53;;;;;;;;;;4992264;28;20451;-73
2023/07/11 09:40:46;;;;;;;56.70;2.33;;;;;;;;;;4992319;28;20502;-73
2023/07/11 09:43:13;;;;;;;56.60;2.43;;;;;;;;;;4992764;28;20451;-73
2023/07/11 09:45:42;;;;;;;56.10;2.17;;;;;;;;;;4991418;28;20984;-74
2023/07/11 09:48:12;;;;;;;57.07;2.73;;;;;;;;;;4984413;28;20451;-73
2023/07/11 09:50:45;;;;;;;57.80;2.60;;;;;;;;;;4991876;28;20451;-73
2023/07/11 09:53:15;;;;;;;56.07;2.00;;;;;;;;;;4984848;28;20486;-72
2023/07/11 09:55:42;;;;;;;56.30;2.00;;;;;;;;;;4992507;28;20455;-74
2023/07/11 09:58:16;;;;;;;56.40;2.07;;;;;;;;;;4992928;28;20458;-71
2023/07/11 10:00:47;;;;;;;56.50;2.40;;;;;;;;;;4992946;28;20474;-72
2023/07/11 10:03:17;;;;;;;55.90;2.00;;;;;;;;;;4994142;28;20458;-70
2023/07/11 10:05:45;;;;;;;56.57;2.40;;;;;;;;;;4993304;28;20470;-73
2023/07/11 10:08:15;;;;;;;55.80;2.10;;;;;;;;;;4993743;28;20447;-72
2023/07/11 10:10:45;;;;;;;57.00;2.77;;;;;;;;;;4993257;28;20494;-72
2023/07/11 10:13:13;;;;;;;56.50;2.40;;;;;;;;;;4994036;28;20548;-73
2023/07/11 10:15:42;;;;;;;56.07;2.30;;;;;;;;;;4992903;28;20461;-72
2023/07/11 10:18:17;;;;;;;56.27;2.00;;;;;;;;;;4994146;28;20446;-73
2023/07/11 10:20:45;;;;;;;58.10;2.47;;;;;;;;;;5000787;28;20506;-70
2023/07/11 10:23:13;;;;;;;56.00;2.20;;;;;;;;;;4999861;28;20961;-70
2023/07/11 10:28:45;;;;;;;56.60;2.53;;;;;;;;;;4998816;28;20394;-70
2023/07/11 10:31:15;;;;;;;56.20;2.80;;;;;;;;;;4999848;28;20969;-70
2023/07/11 10:33:45;;;;;;;55.40;1.90;;;;;;;;;;4999972;28;20490;-73
2023/07/11 10:36:15;;;;;;;56.57;2.43;;;;;;;;;;4999797;28;20454;-73
2023/07/11 10:38:48;;;;;;;55.77;2.20;;;;;;;;;;4999948;28;20455;-71
2023/07/11 10:41:19;;;;;;;57.17;2.63;;;;;;;;;;4999385;28;20498;-71
2023/07/11 10:43:48;;;;;;;55.50;2.60;;;;;;;;;;4999123;28;20467;-71
2023/07/11 10:46:19;;;;;;;55.20;2.30;;;;;;;;;;4998994;28;20451;-70
2023/07/11 10:48:49;;;;;;;55.77;2.93;;;;;;;;;;4999520;28;20455;-71
2023/07/11 10:51:17;;;;;;;55.27;2.30;;;;;;;;;;4999522;28;20997;-71
2023/07/11 10:53:46;;;;;;;56.00;2.70;;;;;;;;;;4998965;28;20490;-71
2023/07/11 10:56:15;;;;;;;55.40;2.60;;;;;;;;;;4998586;28;20530;-70
2023/07/11 10:58:42;;;;;;;55.30;2.23;;;;;;;;;;4998478;28;20516;-71
2023/07/11 11:01:17;;;;;;;55.77;2.43;;;;;;;;;;4999682;28;20475;-71
2023/07/11 11:03:47;;;;;;;55.30;2.00;;;;;;;;;;5000078;28;20817;-71
2023/07/11 11:09:21;;;;;;;55.80;3.03;;;;;;;;;;4997683;28;20401;-71
2023/07/11 11:11:53;;;;;;;55.07;2.53;;;;;;;;;;4998204;28;20490;-71
2023/07/11 11:14:24;;;;;;;55.13;2.23;;;;;;;;;;4999473;28;20494;-71
2023/07/11 11:16:58;;;;;;;55.23;3.00;;;;;;;;;;4999353;28;20529;-71
2023/07/11 11:19:31;;;;;;;55.30;3.10;;;;;;;;;;4999171;28;20447;-70
2023/07/11 11:22:01;;;;;;;55.00;2.20;;;;;;;;;;4998038;28;20482;-71
2023/07/11 11:24:35;;;;;;;55.97;2.80;;;;;;;;;;4999064;28;20446;-70
2023/07/11 11:27:05;;;;;;;54.53;2.60;;;;;;;;;;4999009;28;20446;-71
2023/07/11 11:29:41;;;;;;;54.13;2.20;;;;;;;;;;4998737;28;20478;-71
2023/07/11 11:32:14;;;;;;;54.97;2.27;;;;;;;;;;4995613;28;20478;-70
2023/07/11 11:34:50;;;;;;;55.00;2.63;;;;;;;;;;4996508;28;20435;-70
2023/07/11 11:37:22;;;;;;;55.07;1.90;;;;;;;;;;4996234;28;20450;-71
2023/07/11 11:39:55;;;;;;;55.03;2.27;;;;;;;;;;4996865;28;20498;-71
2023/07/11 11:42:24;;;;;;;55.00;2.03;;;;;;;;;;4995851;28;20471;-72
2023/07/11 11:44:53;;;;;;;55.20;3.03;;;;;;;;;;4995430;28;20470;-71
2023/07/11 11:47:22;;;;;;;56.50;2.53;;;;;;;;;;4996035;28;20457;-71
2023/07/11 11:49:50;;;;;;;55.30;2.97;;;;;;;;;;4996437;28;20451;-70
2023/07/11 11:52:18;;;;;;;54.70;2.43;;;;;;;;;;4996419;28;20479;-71
2023/07/11 11:54:46;;;;;;;57.60;3.20;;;;;;;;;;4996447;28;20963;-71
2023/07/11 11:57:18;;;;;;;54.07;2.53;;;;;;;;;;4995935;28;20970;-72
2023/07/11 11:59:46;;;;;;;56.57;2.60;;;;;;;;;;4995900;28;20482;-68
2023/07/11 12:02:14;;;;;;;55.67;2.70;;;;;;;;;;4996084;28;20481;-72
2023/07/11 12:04:56;;;;;;;54.83;2.63;;;;;;;;;;4994935;28;21014;-71
2023/07/11 12:07:29;;;;;;;55.20;2.47;;;;;;;;;;4996056;28;20494;-71
2023/07/11 12:10:10;;;;;;;55.30;2.80;;;;;;;;;;4995516;28;20461;-72
2023/07/11 12:12:56;;;;;;;55.30;3.13;;;;;;;;;;4994774;28;20475;-71
2023/07/11 12:15:24;;;;;;;55.03;2.50;;;;;;;;;;4994788;28;20462;-71
2023/07/11 12:17:52;;;;;;;55.17;2.37;;;;;;;;;;4995581;28;20451;-71
2023/07/11 12:20:21;;;;;;;56.20;3.40;;;;;;;;;;4995196;28;20461;-71
2023/07/11 12:23:07;;;;;;;71.20;4.23;;;;;;;;;;4996482;28;20859;-71
2023/07/11 12:25:35;;;;;;;55.70;2.63;;;;;;;;;;4994853;28;20459;-71
2023/07/11 12:28:02;;;;;;;55.77;2.93;;;;;;;;;;4996140;28;20451;-71
2023/07/11 12:30:36;;;;;;;56.07;2.67;;;;;;;;;;4995707;28;20466;-71
2023/07/11 12:33:16;;;;;;;55.37;2.07;;;;;;;;;;4995238;28;20449;-70
2023/07/11 12:35:43;;;;;;;56.10;2.70;;;;;;;;;;4994901;28;20450;-72
2023/07/11 12:38:12;;;;;;;55.60;2.33;;;;;;;;;;4995684;28;20455;-71
2023/07/11 12:40:45;;;;;;;56.37;3.13;;;;;;;;;;4994720;28;20455;-72
2023/07/11 12:43:17;;;;;;;55.27;2.63;;;;;;;;;;4994203;28;20838;-72
2023/07/11 12:45:47;;;;;;;55.37;2.50;;;;;;;;;;4994556;28;20747;-72
2023/07/11 12:48:15;;;;;;;54.97;2.03;;;;;;;;;;4994705;28;20462;-72
2023/07/11 12:50:44;;;;;;;55.20;2.27;;;;;;;;;;4994030;28;20459;-72
2023/07/11 12:53:12;;;;;;;55.80;3.07;;;;;;;;;;4994566;28;20455;-71
2023/07/11 12:55:39;;;;;;;69.53;3.40;;;;;;;;;;4994268;28;20458;-71
2023/07/11 12:58:14;;;;;;;55.17;2.20;;;;;;;;;;4994180;28;20921;-71
2023/07/11 13:00:42;;;;;;;55.20;2.60;;;;;;;;;;4994133;28;20455;-71
2023/07/11 13:03:18;;;;;;;55.00;2.13;;;;;;;;;;4994190;28;20487;-72
2023/07/11 13:05:48;;;;;;;55.40;3.00;;;;;;;;;;4994986;28;20461;-71
2023/07/11 13:08:16;;;;;;;54.90;2.43;;;;;;;;;;4994415;28;20458;-72
2023/07/11 13:10:49;;;;;;;55.00;2.40;;;;;;;;;;4994183;28;20514;-72
2023/07/11 13:13:17;;;;;;;55.17;2.53;;;;;;;;;;4994952;28;20527;-72
2023/07/11 13:15:44;;;;;;;54.13;2.40;;;;;;;;;;4994997;28;20474;-72
2023/07/11 13:18:29;;;;;;;57.97;3.07;;;;;;;;;;4994841;28;20976;-73
2023/07/11 13:20:56;;;;;;;54.20;2.43;;;;;;;;;;4994689;28;20959;-72
2023/07/11 13:23:45;;;;;;;55.07;2.77;;;;;;;;;;4994877;28;20490;-72
2023/07/11 13:26:20;;;;;;;54.80;2.03;;;;;;;;;;4992438;28;20513;-72
2023/07/11 13:29:03;;;;;;;55.77;2.50;;;;;;;;;;4994337;28;20840;-72
2023/07/11 13:31:32;;;;;;;55.50;2.40;;;;;;;;;;4993746;28;20915;-72
2023/07/11 13:34:01;;;;;;;55.47;2.90;;;;;;;;;;4994190;28;20459;-72
2023/07/11 13:36:29;;;;;;;55.07;2.27;;;;;;;;;;4993935;28;20458;-71
2023/07/11 13:39:00;;;;;;;55.50;2.73;;;;;;;;;;4994929;28;20943;-72
2023/07/11 13:41:28;;;;;;;56.30;3.60;;;;;;;;;;4993711;28;21002;-72
2023/07/11 13:43:58;;;;;;;54.63;2.30;;;;;;;;;;4994338;28;20490;-73
2023/07/11 13:46:28;;;;;;;54.97;2.10;;;;;;;;;;4994322;28;20463;-72
2023/07/11 13:48:56;;;;;;;54.47;3.10;;;;;;;;;;4994082;28;20455;-72
2023/07/11 13:51:24;;;;;;;54.57;2.40;;;;;;;;;;4994058;28;20824;-72
2023/07/11 13:53:52;;;;;;;57.67;3.90;;;;;;;;;;4992680;28;20451;-72
2023/07/11 13:56:19;;;;;;;54.30;2.50;;;;;;;;;;4993922;28;20458;-73
2023/07/11 13:58:47;;;;;;;55.77;2.20;;;;;;;;;;4993589;28;20447;-72
2023/07/11 14:01:18;;;;;;;55.47;2.50;;;;;;;;;;4992694;28;20475;-72
2023/07/11 14:03:45;;;;;;;55.40;2.33;;;;;;;;;;4993493;28;20466;-72
2023/07/11 14:06:14;;;;;;;55.20;2.20;;;;;;;;;;4993207;28;20824;-72
2023/07/11 14:08:41;;;;;;;55.00;2.50;;;;;;;;;;4993757;28;20482;-70
2023/07/11 14:11:13;;;;;;;55.80;3.23;;;;;;;;;;4992731;28;20475;-73
2023/07/11 14:13:41;;;;;;;55.17;2.77;;;;;;;;;;4992944;28;20934;-72
2023/07/11 14:16:09;;;;;;;56.00;3.00;;;;;;;;;;4992727;28;20455;-71
2023/07/11 14:18:38;;;;;;;55.90;2.30;;;;;;;;;;4993963;28;20462;-73
2023/07/11 14:21:05;;;;;;;55.20;2.50;;;;;;;;;;4992847;28;20478;-72
2023/07/11 14:23:32;;;;;;;55.50;2.67;;;;;;;;;;4992856;28;20482;-73
2023/07/11 14:26:01;;;;;;;55.90;3.10;;;;;;;;;;4992679;28;20452;-72
2023/07/11 14:28:28;;;;;;;55.70;2.80;;;;;;;;;;4992504;28;20494;-72
2023/07/11 14:30:57;;;;;;;55.63;2.30;;;;;;;;;;4991733;28;20474;-72
2023/07/11 14:33:25;;;;;;;55.27;2.33;;;;;;;;;;4993658;28;20459;-72
2023/07/11 14:35:53;;;;;;;56.07;2.63;;;;;;;;;;4993261;28;20485;-72
2023/07/11 14:38:21;;;;;;;55.80;2.67;;;;;;;;;;4993371;28;20465;-72
2023/07/11 14:40:49;;;;;;;56.27;2.63;;;;;;;;;;4992594;28;21357;-72
2023/07/11 14:43:17;;;;;;;56.00;3.10;;;;;;;;;;4992605;28;20839;-71
2023/07/11 14:45:44;;;;;;;56.30;3.20;;;;;;;;;;4994583;28;20447;-72
2023/07/11 14:48:14;;;;;;;55.90;3.10;;;;;;;;;;4992909;28;20451;-72
2023/07/11 14:50:41;;;;;;;54.90;2.13;;;;;;;;;;4992615;28;20455;-72
2023/07/11 14:53:31;;;;;;;55.37;2.73;;;;;;;;;;4991799;28;20462;-72
2023/07/11 14:55:58;;;;;;;55.40;3.07;;;;;;;;;;4992221;28;20523;-72
2023/07/11 14:58:25;;;;;;;55.60;2.30;;;;;;;;;;4993112;28;20455;-72